Time;durP1;ratioP1;P1;durP2;ratioP2;P2;SDS_P1;SDS_P2;PMS_P1;PMS_P2;Temp;Humidity;BMP_temperature;BMP_pressure;BME280_temperature;BME280_humidity;BME280_pressure;Samples;Min_cycle;Max_cycle;Signal;HPM_P1;HPM_P2
2021/07/11 00:00:54;;;;;;;748.00;663.55;;;;;;;;;;4955011;29;20387;-83
2021/07/11 00:03:20;;;;;;;881.42;790.15;;;;;;;;;;4930196;29;20024;-86
2021/07/11 00:05:46;;;;;;;736.50;654.47;;;;;;;;;;4934291;29;20032;-86
2021/07/11 00:08:12;;;;;;;685.55;583.70;;;;;;;;;;4936242;29;20047;-83
2021/07/11 00:10:38;;;;;;;688.70;595.03;;;;;;;;;;4937556;29;20027;-86
2021/07/11 00:13:05;;;;;;;661.40;570.50;;;;;;;;;;4933320;29;20035;-85
2021/07/11 00:15:30;;;;;;;677.78;582.38;;;;;;;;;;4948005;29;21312;-83
2021/07/11 00:17:57;;;;;;;706.45;619.95;;;;;;;;;;4935703;29;20081;-81
2021/07/11 00:20:23;;;;;;;733.80;651.35;;;;;;;;;;4932378;29;20027;-85
2021/07/11 00:22:49;;;;;;;696.20;609.65;;;;;;;;;;4936683;29;20028;-84
2021/07/11 00:25:15;;;;;;;649.05;553.38;;;;;;;;;;4931404;29;20110;-86
2021/07/11 00:27:42;;;;;;;635.13;540.33;;;;;;;;;;4952720;28;20023;-86
2021/07/11 00:30:09;;;;;;;679.28;586.60;;;;;;;;;;4933267;29;20028;-86
2021/07/11 00:32:35;;;;;;;834.67;746.08;;;;;;;;;;4953569;29;20097;-84
2021/07/11 00:35:01;;;;;;;842.53;753.08;;;;;;;;;;4934761;29;20110;-84
2021/07/11 00:37:27;;;;;;;800.47;712.92;;;;;;;;;;4935860;29;20400;-86
2021/07/11 00:39:53;;;;;;;801.67;715.35;;;;;;;;;;4952025;28;20023;-83
2021/07/11 00:42:19;;;;;;;730.33;650.00;;;;;;;;;;4935647;28;20162;-84
2021/07/11 00:44:45;;;;;;;742.35;660.55;;;;;;;;;;4931750;29;20130;-85
2021/07/11 00:47:12;;;;;;;743.15;659.80;;;;;;;;;;4936249;29;20731;-85
2021/07/11 00:49:42;;;;;;;822.97;735.92;;;;;;;;;;4934477;29;20126;-88
2021/07/11 00:52:08;;;;;;;;;;;;;;;;;;4934653;29;20039;-84
2021/07/11 00:54:37;;;;;;;817.80;728.95;;;;;;;;;;4935663;29;19910;-84
2021/07/11 00:57:04;;;;;;;970.83;872.38;;;;;;;;;;4953625;29;20031;-86
2021/07/11 00:59:30;;;;;;;716.72;637.65;;;;;;;;;;4937233;29;20507;-84
2021/07/11 01:02:02;;;;;;;756.25;673.50;;;;;;;;;;4937631;29;20036;-84
2021/07/11 01:04:31;;;;;;;925.55;830.53;;;;;;;;;;4935185;29;20027;-84
2021/07/11 01:07:00;;;;;;;849.38;759.55;;;;;;;;;;4951327;29;20154;-83
2021/07/11 01:09:36;;;;;;;960.60;863.63;;;;;;;;;;4934170;29;20129;-83
2021/07/11 01:12:07;;;;;;;719.10;636.13;;;;;;;;;;4952163;29;20037;-85
2021/07/11 01:14:33;;;;;;;904.80;812.33;;;;;;;;;;4949248;28;20384;-82
2021/07/11 01:17:03;;;;;;;975.65;877.88;;;;;;;;;;4937505;28;20045;-84
2021/07/11 01:19:48;;;;;;;1071.78;967.00;;;;;;;;;;4932815;29;20337;-83
2021/07/11 01:22:15;;;;;;;1044.82;941.97;;;;;;;;;;4950136;29;20023;-85
2021/07/11 01:24:51;;;;;;;772.22;688.97;;;;;;;;;;4933435;29;20024;-84
2021/07/11 01:27:19;;;;;;;936.13;840.67;;;;;;;;;;4935786;29;20040;-84
2021/07/11 01:29:45;;;;;;;993.83;894.45;;;;;;;;;;4951308;29;20039;-85
2021/07/11 01:32:12;;;;;;;911.83;818.28;;;;;;;;;;4948525;29;20050;-85
2021/07/11 01:34:39;;;;;;;1100.13;992.22;;;;;;;;;;4929675;29;20066;-85
2021/07/11 01:37:05;;;;;;;912.75;818.70;;;;;;;;;;4926534;29;20095;-84
2021/07/11 01:39:31;;;;;;;801.38;715.17;;;;;;;;;;4929179;29;20075;-83
2021/07/11 01:41:57;;;;;;;890.75;798.15;;;;;;;;;;4937295;29;20027;-83
2021/07/11 01:44:27;;;;;;;1022.25;920.35;;;;;;;;;;4933647;29;20034;-84
2021/07/11 01:46:54;;;;;;;1176.93;999.90;;;;;;;;;;4936466;29;20069;-84
2021/07/11 01:49:20;;;;;;;1039.32;935.65;;;;;;;;;;4936609;29;20074;-83
2021/07/11 01:51:47;;;;;;;1080.65;974.03;;;;;;;;;;4927462;29;20063;-83
2021/07/11 01:54:13;;;;;;;1112.38;998.83;;;;;;;;;;4935455;29;20035;-86
2021/07/11 01:56:40;;;;;;;1047.10;942.95;;;;;;;;;;4939308;29;20031;-91
2021/07/11 01:59:06;;;;;;;1040.63;937.17;;;;;;;;;;4934736;29;20050;-84
2021/07/11 02:01:32;;;;;;;1010.08;908.83;;;;;;;;;;4946836;29;20019;-86
2021/07/11 02:03:58;;;;;;;991.78;891.83;;;;;;;;;;4946501;29;20514;-87
2021/07/11 02:06:24;;;;;;;1192.97;999.90;;;;;;;;;;4929092;29;20393;-84
2021/07/11 02:08:50;;;;;;;1124.53;999.90;;;;;;;;;;4933093;29;20054;-85
2021/07/11 02:11:17;;;;;;;1085.07;977.90;;;;;;;;;;4948365;29;20055;-84
2021/07/11 02:13:55;;;;;;;612.85;517.92;;;;;;;;;;4929783;29;20032;-85
2021/07/11 02:16:25;;;;;;;699.15;609.75;;;;;;;;;;4935856;29;20777;-84
2021/07/11 02:18:53;;;;;;;618.22;529.55;;;;;;;;;;4933375;29;20034;-85
2021/07/11 02:21:23;;;;;;;1126.57;999.90;;;;;;;;;;4932537;29;20027;-84
2021/07/11 02:23:49;;;;;;;1105.25;995.67;;;;;;;;;;4932406;29;20028;-83
2021/07/11 02:26:15;;;;;;;607.42;512.28;;;;;;;;;;4945784;29;20114;-85
2021/07/11 02:28:42;;;;;;;688.03;607.90;;;;;;;;;;4927297;29;20031;-82
2021/07/11 02:31:12;;;;;;;583.33;494.48;;;;;;;;;;4950407;29;20062;-83
2021/07/11 02:33:38;;;;;;;618.28;520.17;;;;;;;;;;4928826;29;20031;-84
2021/07/11 02:36:16;;;;;;;731.15;479.23;;;;;;;;;;4933903;29;20046;-83
2021/07/11 02:38:46;;;;;;;653.80;550.70;;;;;;;;;;4923293;29;20087;-83
2021/07/11 02:41:13;;;;;;;732.40;498.45;;;;;;;;;;4928962;29;20043;-86
2021/07/11 02:43:41;;;;;;;737.92;497.90;;;;;;;;;;4938635;29;20397;-85
2021/07/11 02:46:07;;;;;;;767.13;571.17;;;;;;;;;;4931283;29;20032;-85
2021/07/11 02:48:34;;;;;;;779.83;609.53;;;;;;;;;;4934832;29;20366;-86
2021/07/11 02:51:00;;;;;;;797.55;711.10;;;;;;;;;;4934516;29;20483;-81
2021/07/11 02:53:28;;;;;;;775.83;570.05;;;;;;;;;;4932436;29;20035;-82
2021/07/11 02:55:56;;;;;;;785.85;607.28;;;;;;;;;;4946147;29;20016;-84
2021/07/11 02:58:24;;;;;;;732.72;650.50;;;;;;;;;;4951267;29;20035;-83
2021/07/11 03:00:50;;;;;;;731.35;477.73;;;;;;;;;;4934372;29;20043;-82
2021/07/11 03:03:17;;;;;;;746.50;494.27;;;;;;;;;;4932856;29;20364;-84
2021/07/11 03:05:43;;;;;;;706.20;370.15;;;;;;;;;;4934398;29;20024;-84
2021/07/11 03:08:09;;;;;;;753.70;487.55;;;;;;;;;;4952918;29;20058;-83
2021/07/11 03:10:36;;;;;;;619.92;201.75;;;;;;;;;;4942103;29;20093;-82
2021/07/11 03:13:03;;;;;;;720.78;437.67;;;;;;;;;;4932664;29;20082;-85
2021/07/11 03:15:30;;;;;;;647.05;262.92;;;;;;;;;;4937553;29;20464;-83
2021/07/11 03:17:58;;;;;;;759.22;562.38;;;;;;;;;;4940002;29;20032;-84
2021/07/11 03:20:25;;;;;;;619.38;523.53;;;;;;;;;;4932312;29;20058;-83
2021/07/11 03:22:53;;;;;;;604.40;509.85;;;;;;;;;;4948228;29;20027;-85
2021/07/11 03:25:21;;;;;;;583.65;494.35;;;;;;;;;;4934017;29;20024;-85
2021/07/11 03:27:47;;;;;;;636.80;549.22;;;;;;;;;;4930449;29;20490;-84
2021/07/11 03:30:16;;;;;;;620.72;528.88;;;;;;;;;;4935185;28;20185;-85
2021/07/11 03:33:00;;;;;;;653.67;557.03;;;;;;;;;;4931992;29;20039;-85
2021/07/11 03:35:32;;;;;;;674.45;586.30;;;;;;;;;;4953829;28;20319;-85
2021/07/11 03:37:59;;;;;;;659.63;563.17;;;;;;;;;;4936062;29;20453;-85
2021/07/11 03:40:28;;;;;;;1014.60;915.53;;;;;;;;;;4935240;29;20390;-85
2021/07/11 03:42:55;;;;;;;747.00;663.17;;;;;;;;;;4938969;29;20031;-85
2021/07/11 03:45:22;;;;;;;704.58;611.15;;;;;;;;;;4935839;29;20032;-84
2021/07/11 03:47:52;;;;;;;759.30;676.42;;;;;;;;;;4935176;28;20032;-85
2021/07/11 03:50:20;;;;;;;758.90;675.30;;;;;;;;;;4930751;29;20110;-84
2021/07/11 03:52:49;;;;;;;724.95;643.00;;;;;;;;;;4947295;29;20039;-84
2021/07/11 03:55:15;;;;;;;709.13;627.70;;;;;;;;;;4930333;29;20067;-83
2021/07/11 03:57:43;;;;;;;716.78;636.22;;;;;;;;;;4933816;29;20491;-83
2021/07/11 04:00:10;;;;;;;702.47;614.97;;;;;;;;;;4949300;29;20475;-83
2021/07/11 04:02:36;;;;;;;713.42;626.13;;;;;;;;;;4923969;29;20118;-82
2021/07/11 04:05:04;;;;;;;678.28;589.65;;;;;;;;;;4951311;29;20015;-82
2021/07/11 04:07:30;;;;;;;652.10;556.70;;;;;;;;;;4941647;29;20118;-82
2021/07/11 04:09:56;;;;;;;635.20;542.75;;;;;;;;;;4950101;29;20752;-82
2021/07/11 04:12:22;;;;;;;631.40;534.63;;;;;;;;;;4934991;29;20034;-81
2021/07/11 04:14:48;;;;;;;631.55;543.70;;;;;;;;;;4950613;28;20023;-81
2021/07/11 04:17:15;;;;;;;627.70;518.55;;;;;;;;;;4932813;29;20431;-81
2021/07/11 04:19:42;;;;;;;681.05;567.90;;;;;;;;;;4951542;29;20027;-80
2021/07/11 04:22:10;;;;;;;652.67;556.65;;;;;;;;;;4933271;29;20069;-79
2021/07/11 04:24:37;;;;;;;703.45;611.33;;;;;;;;;;4944355;29;20054;-79
2021/07/11 04:27:03;;;;;;;706.03;617.72;;;;;;;;;;4948845;29;20111;-79
2021/07/11 04:29:33;;;;;;;717.30;636.80;;;;;;;;;;4932993;29;20043;-79
2021/07/11 04:31:59;;;;;;;758.67;675.85;;;;;;;;;;4939578;29;20050;-81
2021/07/11 04:34:33;;;;;;;741.05;659.15;;;;;;;;;;4938241;29;20095;-80
2021/07/11 04:37:23;;;;;;;752.00;668.10;;;;;;;;;;4939375;29;20027;-80
2021/07/11 04:39:49;;;;;;;824.78;736.30;;;;;;;;;;4938886;29;20027;-81
2021/07/11 04:42:16;;;;;;;740.53;656.15;;;;;;;;;;4937331;29;20194;-81
2021/07/11 04:44:45;;;;;;;786.50;700.78;;;;;;;;;;4941477;29;20059;-80
2021/07/11 04:47:12;;;;;;;801.00;714.42;;;;;;;;;;4944307;29;20031;-80
2021/07/11 04:52:56;;;;;;;722.60;631.90;;;;;;;;;;4954776;29;20419;-81
2021/07/11 04:55:22;;;;;;;644.38;551.25;;;;;;;;;;4938721;29;20032;-80
2021/07/11 04:57:48;;;;;;;659.88;564.80;;;;;;;;;;4920563;29;20027;-81
2021/07/11 05:00:14;;;;;;;651.20;559.25;;;;;;;;;;4951572;29;20106;-80
2021/07/11 05:02:46;;;;;;;679.30;584.95;;;;;;;;;;4938804;29;20031;-80
2021/07/11 05:05:12;;;;;;;668.25;570.17;;;;;;;;;;4935439;29;20380;-80
2021/07/11 05:07:38;;;;;;;635.67;542.22;;;;;;;;;;4938593;28;20054;-80
2021/07/11 05:10:05;;;;;;;649.95;568.70;;;;;;;;;;4952266;29;20110;-80
2021/07/11 05:12:31;;;;;;;637.60;541.85;;;;;;;;;;4950805;29;20046;-80
2021/07/11 05:14:57;;;;;;;608.78;515.92;;;;;;;;;;4922531;29;20035;-80
2021/07/11 05:17:23;;;;;;;587.33;496.73;;;;;;;;;;4924582;29;20416;-81
2021/07/11 05:19:49;;;;;;;550.47;460.60;;;;;;;;;;4938432;29;20068;-79
2021/07/11 05:22:46;;;;;;;543.50;459.15;;;;;;;;;;4935924;29;20032;-79
2021/07/11 05:25:12;;;;;;;545.15;455.17;;;;;;;;;;4930687;29;20073;-80
2021/07/11 05:27:38;;;;;;;561.42;476.00;;;;;;;;;;4938353;29;20035;-77
2021/07/11 05:30:04;;;;;;;575.75;486.83;;;;;;;;;;4933006;29;20031;-78
2021/07/11 05:32:30;;;;;;;786.13;702.60;;;;;;;;;;4953709;28;20037;-78
2021/07/11 05:35:00;;;;;;;622.28;521.95;;;;;;;;;;4930771;29;20036;-78
2021/07/11 05:37:26;;;;;;;642.15;555.72;;;;;;;;;;4955498;29;20039;-79
2021/07/11 05:39:53;;;;;;;858.35;766.90;;;;;;;;;;4941451;29;20030;-79
2021/07/11 05:42:19;;;;;;;661.40;569.22;;;;;;;;;;4946893;29;20344;-79
2021/07/11 05:44:45;;;;;;;733.40;653.33;;;;;;;;;;4949572;29;20023;-79
2021/07/11 05:47:12;;;;;;;704.13;621.40;;;;;;;;;;4934999;29;20930;-80
2021/07/11 05:49:39;;;;;;;778.25;694.05;;;;;;;;;;4926189;29;20046;-80
2021/07/11 05:52:05;;;;;;;1098.05;992.58;;;;;;;;;;4955004;29;20035;-81
2021/07/11 05:54:31;;;;;;;807.00;695.30;;;;;;;;;;4935150;29;20134;-80
2021/07/11 05:56:57;;;;;;;1097.28;991.33;;;;;;;;;;4930404;29;20117;-80
2021/07/11 05:59:23;;;;;;;805.05;705.15;;;;;;;;;;4926970;29;20047;-81
2021/07/11 06:01:49;;;;;;;639.55;253.07;;;;;;;;;;4930776;29;20115;-81
2021/07/11 06:04:14;;;;;;;621.05;215.48;;;;;;;;;;4935320;29;20037;-82
2021/07/11 06:06:40;;;;;;;507.88;423.38;;;;;;;;;;4927367;29;20015;-81
2021/07/11 06:09:07;;;;;;;522.58;446.02;;;;;;;;;;4947724;29;20102;-82
2021/07/11 06:11:33;;;;;;;526.42;452.60;;;;;;;;;;4940948;29;20035;-82
2021/07/11 06:13:58;;;;;;;969.22;863.53;;;;;;;;;;4935062;29;20533;-81
2021/07/11 06:16:24;;;;;;;523.25;447.88;;;;;;;;;;4937164;29;20031;-79
2021/07/11 06:18:50;;;;;;;521.08;443.13;;;;;;;;;;4937445;29;20086;-81
2021/07/11 06:21:16;;;;;;;520.90;447.48;;;;;;;;;;4935871;29;20058;-80
2021/07/11 06:23:42;;;;;;;518.10;437.23;;;;;;;;;;4953628;29;20107;-82
2021/07/11 06:26:08;;;;;;;522.10;445.55;;;;;;;;;;4952037;29;20462;-84
2021/07/11 06:28:44;;;;;;;517.20;443.67;;;;;;;;;;4952755;29;20106;-85
2021/07/11 06:31:10;;;;;;;516.65;443.20;;;;;;;;;;4933355;29;20058;-84
2021/07/11 06:33:36;;;;;;;517.45;443.25;;;;;;;;;;4951117;29;20020;-84
2021/07/11 06:36:02;;;;;;;517.85;446.92;;;;;;;;;;4946480;28;20098;-82
2021/07/11 06:38:27;;;;;;;516.60;441.60;;;;;;;;;;4953472;29;20460;-81
2021/07/11 06:41:31;;;;;;;518.03;447.85;;;;;;;;;;4926023;29;20035;-82
2021/07/11 06:43:57;;;;;;;518.90;445.00;;;;;;;;;;4946607;29;20023;-84
2021/07/11 06:46:23;;;;;;;521.90;451.90;;;;;;;;;;4930006;29;20024;-82
2021/07/11 06:48:49;;;;;;;522.10;453.23;;;;;;;;;;4950471;29;20024;-85
2021/07/11 06:51:15;;;;;;;521.72;450.00;;;;;;;;;;4945266;29;20027;-85
2021/07/11 06:53:47;;;;;;;524.40;450.02;;;;;;;;;;4928047;29;20032;-88
2021/07/11 06:56:13;;;;;;;525.13;455.83;;;;;;;;;;4951311;28;20122;-87
2021/07/11 06:58:39;;;;;;;529.67;460.95;;;;;;;;;;4934350;29;20050;-86
2021/07/11 07:01:05;;;;;;;527.15;454.50;;;;;;;;;;4942365;29;20020;-87
2021/07/11 07:03:30;;;;;;;525.75;457.77;;;;;;;;;;4937786;29;20011;-87
2021/07/11 07:06:16;;;;;;;528.13;457.20;;;;;;;;;;4935405;29;20020;-86
2021/07/11 07:08:42;;;;;;;528.13;458.08;;;;;;;;;;4936185;29;20052;-86
2021/07/11 07:11:08;;;;;;;526.80;457.90;;;;;;;;;;4952365;29;20163;-85
2021/07/11 07:13:34;;;;;;;531.88;468.25;;;;;;;;;;4935638;29;20027;-85
2021/07/11 07:16:00;;;;;;;529.33;470.10;;;;;;;;;;4951992;29;20486;-83
2021/07/11 07:18:26;;;;;;;533.58;472.27;;;;;;;;;;4937781;29;20028;-85
2021/07/11 07:20:52;;;;;;;535.80;476.42;;;;;;;;;;4937622;29;20050;-83
2021/07/11 07:23:19;;;;;;;531.83;470.75;;;;;;;;;;4951635;29;20110;-84
2021/07/11 07:25:45;;;;;;;536.63;477.42;;;;;;;;;;4945317;29;20496;-82
2021/07/11 07:28:12;;;;;;;539.78;480.65;;;;;;;;;;4929928;29;20130;-82
2021/07/11 07:30:38;;;;;;;542.88;483.77;;;;;;;;;;4946952;28;20027;-81
2021/07/11 07:33:04;;;;;;;540.20;481.27;;;;;;;;;;4931063;29;20035;-83
2021/07/11 07:35:30;;;;;;;546.75;487.35;;;;;;;;;;4932833;29;20062;-82
2021/07/11 07:37:56;;;;;;;547.00;487.45;;;;;;;;;;4945878;28;20171;-82
2021/07/11 07:40:22;;;;;;;543.00;483.70;;;;;;;;;;4949776;29;20031;-84
2021/07/11 07:42:49;;;;;;;544.88;485.73;;;;;;;;;;4946411;29;20134;-83
2021/07/11 07:45:15;;;;;;;545.17;485.80;;;;;;;;;;4929455;29;20547;-82
2021/07/11 07:47:41;;;;;;;552.63;492.77;;;;;;;;;;4949459;28;20023;-83
2021/07/11 07:50:12;;;;;;;555.90;495.38;;;;;;;;;;4936599;29;20032;-81
2021/07/11 07:52:37;;;;;;;;;;;;;;;;;;4945906;28;20027;-82
2021/07/11 07:55:04;;;;;;;531.47;469.30;;;;;;;;;;4945098;28;19910;-82
2021/07/11 07:57:30;;;;;;;554.28;493.58;;;;;;;;;;4927801;29;20382;-80
2021/07/11 07:59:56;;;;;;;547.97;487.85;;;;;;;;;;4936149;29;20063;-81
2021/07/11 08:02:23;;;;;;;547.47;487.63;;;;;;;;;;4947133;28;20024;-82
2021/07/11 08:04:49;;;;;;;551.20;490.92;;;;;;;;;;4951635;28;20023;-82
2021/07/11 08:07:15;;;;;;;562.70;501.38;;;;;;;;;;4929868;29;20034;-81
2021/07/11 08:09:41;;;;;;;536.67;477.20;;;;;;;;;;4955179;28;20059;-81
2021/07/11 08:12:07;;;;;;;532.45;469.63;;;;;;;;;;4938885;29;20459;-81
2021/07/11 08:14:51;;;;;;;539.78;480.27;;;;;;;;;;4934649;29;20028;-82
2021/07/11 08:17:17;;;;;;;536.00;471.30;;;;;;;;;;4953427;28;20063;-82
2021/07/11 08:19:43;;;;;;;533.30;472.90;;;;;;;;;;4955990;28;20059;-82
2021/07/11 08:22:09;;;;;;;544.53;484.92;;;;;;;;;;4949572;29;20042;-81
2021/07/11 08:24:35;;;;;;;531.05;471.88;;;;;;;;;;4953719;29;20023;-81
2021/07/11 08:27:06;;;;;;;539.67;480.38;;;;;;;;;;4938445;29;20023;-81
2021/07/11 08:29:33;;;;;;;539.15;479.83;;;;;;;;;;4951338;29;20094;-81
2021/07/11 08:31:59;;;;;;;534.63;475.70;;;;;;;;;;4932290;29;20122;-81
2021/07/11 08:34:25;;;;;;;543.85;484.40;;;;;;;;;;4956650;29;20027;-81
2021/07/11 08:36:52;;;;;;;531.40;472.65;;;;;;;;;;4930611;29;20063;-81
2021/07/11 08:39:37;;;;;;;537.40;478.38;;;;;;;;;;4934418;29;20051;-82
2021/07/11 08:42:06;;;;;;;530.40;469.92;;;;;;;;;;4953009;29;20023;-82
2021/07/11 08:44:33;;;;;;;633.10;564.60;;;;;;;;;;4955291;29;20428;-81
2021/07/11 08:46:59;;;;;;;530.78;472.30;;;;;;;;;;4941171;29;20028;-83
2021/07/11 08:49:25;;;;;;;535.78;477.13;;;;;;;;;;4920334;29;20035;-81
2021/07/11 08:52:04;;;;;;;536.13;477.30;;;;;;;;;;4945992;28;20028;-82
2021/07/11 08:54:30;;;;;;;527.67;466.33;;;;;;;;;;4936728;29;20032;-82
2021/07/11 08:56:57;;;;;;;524.65;462.42;;;;;;;;;;4938380;29;20162;-83
2021/07/11 08:59:23;;;;;;;532.38;470.20;;;;;;;;;;4946358;29;20721;-81
2021/07/11 09:01:49;;;;;;;528.78;469.52;;;;;;;;;;4937168;29;20129;-83
2021/07/11 09:04:37;;;;;;;528.85;466.25;;;;;;;;;;4937619;29;20470;-82
2021/07/11 09:07:05;;;;;;;534.45;467.88;;;;;;;;;;4964165;28;20016;-81
2021/07/11 09:09:33;;;;;;;536.05;472.75;;;;;;;;;;4955129;29;20451;-84
2021/07/11 09:12:06;;;;;;;532.45;473.08;;;;;;;;;;4956441;28;20027;-84
2021/07/11 09:14:54;;;;;;;529.90;471.00;;;;;;;;;;4954743;29;20035;-81
2021/07/11 09:17:20;;;;;;;525.97;464.73;;;;;;;;;;4952817;29;20101;-82
2021/07/11 09:19:50;;;;;;;527.22;467.00;;;;;;;;;;4940172;29;20035;-81
2021/07/11 09:22:17;;;;;;;527.30;466.38;;;;;;;;;;4948070;28;20248;-89
2021/07/11 09:24:51;;;;;;;531.08;472.85;;;;;;;;;;4956325;29;20439;-87
2021/07/11 09:27:19;;;;;;;532.55;473.92;;;;;;;;;;4953061;29;20042;-86
2021/07/11 09:29:46;;;;;;;541.47;482.35;;;;;;;;;;4943330;29;20024;-87
2021/07/11 09:32:26;;;;;;;532.88;471.98;;;;;;;;;;4949337;29;20032;-89
2021/07/11 09:34:52;;;;;;;531.30;472.42;;;;;;;;;;4950514;29;20535;-82
2021/07/11 09:37:24;;;;;;;533.15;474.58;;;;;;;;;;4938261;29;20031;-89
2021/07/11 09:39:53;;;;;;;535.28;476.83;;;;;;;;;;4949573;29;20026;-86
2021/07/11 09:42:26;;;;;;;538.05;479.10;;;;;;;;;;4933664;29;20062;-84
2021/07/11 09:44:52;;;;;;;537.75;479.05;;;;;;;;;;4946011;29;20244;-88
2021/07/11 09:47:19;;;;;;;539.88;481.48;;;;;;;;;;4932473;29;20153;-89
2021/07/11 09:50:11;;;;;;;539.88;481.25;;;;;;;;;;4943605;29;20102;-89
2021/07/11 09:52:37;;;;;;;541.92;483.00;;;;;;;;;;4944106;28;20070;-86
2021/07/11 09:55:10;;;;;;;570.55;509.10;;;;;;;;;;4934193;29;20476;-86
2021/07/11 09:57:37;;;;;;;541.25;482.35;;;;;;;;;;4954347;28;20031;-85
2021/07/11 10:00:06;;;;;;;539.28;480.95;;;;;;;;;;4936784;29;20042;-85
2021/07/11 10:02:32;;;;;;;529.88;471.90;;;;;;;;;;4929958;29;20159;-87
2021/07/11 10:04:58;;;;;;;538.90;480.40;;;;;;;;;;4928303;29;20066;-84
2021/07/11 10:07:24;;;;;;;548.08;488.23;;;;;;;;;;4946679;29;20057;-86
2021/07/11 10:09:50;;;;;;;543.78;484.95;;;;;;;;;;4946755;28;20083;-89
2021/07/11 10:12:26;;;;;;;540.25;481.23;;;;;;;;;;4928571;29;20063;-88
2021/07/11 10:14:52;;;;;;;551.65;491.92;;;;;;;;;;4948632;29;20028;-87
2021/07/11 10:17:18;;;;;;;570.60;509.25;;;;;;;;;;4950217;29;20114;-87
2021/07/11 10:19:47;;;;;;;606.60;542.13;;;;;;;;;;4948703;29;20051;-86
2021/07/11 10:22:13;;;;;;;546.53;487.65;;;;;;;;;;4934964;29;20763;-85
2021/07/11 10:24:46;;;;;;;550.28;490.95;;;;;;;;;;4947331;29;20034;-89
2021/07/11 10:27:19;;;;;;;594.28;531.28;;;;;;;;;;4954485;28;20070;-89
2021/07/11 10:29:46;;;;;;;543.35;484.60;;;;;;;;;;4933181;29;20049;-90
2021/07/11 10:32:23;;;;;;;553.30;494.58;;;;;;;;;;4920006;29;20053;-90
2021/07/11 10:35:06;;;;;;;552.53;493.30;;;;;;;;;;4938490;29;20111;-88
2021/07/11 10:37:40;;;;;;;538.88;480.15;;;;;;;;;;4947330;29;20388;-85
2021/07/11 10:40:11;;;;;;;553.72;494.48;;;;;;;;;;4947862;29;20031;-83
2021/07/11 10:42:37;;;;;;;548.33;488.80;;;;;;;;;;4948256;29;20027;-82
2021/07/11 10:45:08;;;;;;;550.53;490.85;;;;;;;;;;4921994;29;20032;-79
2021/07/11 10:47:36;;;;;;;546.35;486.85;;;;;;;;;;4931917;29;20538;-82
2021/07/11 10:50:03;;;;;;;573.50;511.75;;;;;;;;;;4928874;29;20160;-83
2021/07/11 10:52:30;;;;;;;624.53;558.20;;;;;;;;;;4951930;29;20118;-83
2021/07/11 10:55:00;;;;;;;531.65;474.23;;;;;;;;;;4943991;29;20078;-83
2021/07/11 10:57:45;;;;;;;539.95;481.63;;;;;;;;;;4945655;29;20470;-82
2021/07/11 11:00:19;;;;;;;531.80;473.50;;;;;;;;;;4933248;29;20028;-80
2021/07/11 11:02:46;;;;;;;546.83;487.98;;;;;;;;;;4952654;28;20123;-81
2021/07/11 11:05:17;;;;;;;548.55;489.48;;;;;;;;;;4949958;29;20038;-83
2021/07/11 11:08:08;;;;;;;559.78;500.08;;;;;;;;;;4930476;29;20855;-82
2021/07/11 11:10:35;;;;;;;550.90;492.15;;;;;;;;;;4945237;29;20079;-81
2021/07/11 11:13:07;;;;;;;556.83;497.63;;;;;;;;;;4935567;28;20064;-79
2021/07/11 11:15:39;;;;;;;583.72;522.33;;;;;;;;;;4944781;29;20033;-81
2021/07/11 11:18:24;;;;;;;560.95;500.98;;;;;;;;;;4936348;29;20078;-82
2021/07/11 11:20:51;;;;;;;573.33;512.53;;;;;;;;;;4949154;29;20027;-83
2021/07/11 11:23:17;;;;;;;570.00;509.65;;;;;;;;;;4935330;29;20046;-83
2021/07/11 11:25:44;;;;;;;587.60;526.38;;;;;;;;;;4937374;29;20027;-81
2021/07/11 11:28:10;;;;;;;583.67;522.90;;;;;;;;;;4927487;29;20024;-83
2021/07/11 11:30:57;;;;;;;622.92;558.28;;;;;;;;;;4957192;29;20069;-78
2021/07/11 11:33:24;;;;;;;823.58;649.30;;;;;;;;;;4937420;29;20019;-81
2021/07/11 11:35:50;;;;;;;577.22;517.50;;;;;;;;;;4949769;29;20040;-79
2021/07/11 11:38:16;;;;;;;609.28;547.83;;;;;;;;;;4940018;29;20031;-83
2021/07/11 11:40:42;;;;;;;624.88;561.97;;;;;;;;;;4940141;29;20033;-80
2021/07/11 11:43:17;;;;;;;625.17;562.58;;;;;;;;;;4932271;29;20114;-79
2021/07/11 11:45:43;;;;;;;607.58;545.90;;;;;;;;;;4938156;29;20538;-78
2021/07/11 11:48:11;;;;;;;636.50;572.80;;;;;;;;;;4939418;29;20453;-80
2021/07/11 11:50:39;;;;;;;662.85;596.53;;;;;;;;;;4936683;29;20043;-82
2021/07/11 11:53:05;;;;;;;620.35;557.85;;;;;;;;;;4947084;29;20030;-82
2021/07/11 11:55:56;;;;;;;631.88;568.47;;;;;;;;;;4939785;29;20046;-78
2021/07/11 11:58:29;;;;;;;632.47;569.75;;;;;;;;;;4936388;29;20050;-78
2021/07/11 12:01:05;;;;;;;643.22;580.65;;;;;;;;;;4940013;29;20058;-80
2021/07/11 12:03:36;;;;;;;693.20;627.88;;;;;;;;;;4937715;29;20030;-82
2021/07/11 12:06:27;;;;;;;676.70;613.97;;;;;;;;;;4946681;29;20055;-84
2021/07/11 12:08:56;;;;;;;698.50;635.45;;;;;;;;;;4944493;29;20424;-85
2021/07/11 12:11:22;;;;;;;776.63;709.28;;;;;;;;;;4950676;29;20106;-88
2021/07/11 12:13:48;;;;;;;759.53;694.20;;;;;;;;;;4948964;29;20110;-87
2021/07/11 12:16:17;;;;;;;820.35;751.78;;;;;;;;;;4940655;29;20019;-89
2021/07/11 12:19:08;;;;;;;797.28;731.15;;;;;;;;;;4939696;29;20048;-90
2021/07/11 12:21:36;;;;;;;798.28;732.30;;;;;;;;;;4928620;29;20435;-87
2021/07/11 12:24:06;;;;;;;827.65;760.67;;;;;;;;;;4932290;29;20075;-86
2021/07/11 12:26:45;;;;;;;796.55;731.70;;;;;;;;;;4938505;29;20562;-87
2021/07/11 12:29:18;;;;;;;786.15;721.15;;;;;;;;;;4947612;29;20078;-82
2021/07/11 12:31:45;;;;;;;802.92;736.95;;;;;;;;;;4936255;29;20043;-82
2021/07/11 12:34:16;;;;;;;782.47;717.50;;;;;;;;;;4939355;29;20356;-79
2021/07/11 12:36:50;;;;;;;780.92;716.45;;;;;;;;;;4946855;29;20090;-81
2021/07/11 12:39:38;;;;;;;797.60;732.40;;;;;;;;;;4952263;29;20035;-78
2021/07/11 12:42:14;;;;;;;809.65;743.78;;;;;;;;;;4927741;29;20028;-78
2021/07/11 12:44:41;;;;;;;812.20;746.55;;;;;;;;;;4946542;29;20023;-81
2021/07/11 12:47:12;;;;;;;911.40;839.55;;;;;;;;;;4938663;29;20141;-79
2021/07/11 12:49:55;;;;;;;1079.80;979.15;;;;;;;;;;4938544;29;20569;-81
2021/07/11 12:52:21;;;;;;;776.53;713.65;;;;;;;;;;4954379;29;20027;-84
2021/07/11 12:54:47;;;;;;;795.13;731.35;;;;;;;;;;4949414;29;20055;-86
2021/07/11 12:57:13;;;;;;;805.50;740.97;;;;;;;;;;4955923;29;20035;-86
2021/07/11 12:59:40;;;;;;;814.55;748.53;;;;;;;;;;4936791;29;20114;-84
2021/07/11 13:02:15;;;;;;;756.55;693.28;;;;;;;;;;4938774;29;20082;-85
2021/07/11 13:04:45;;;;;;;749.33;685.80;;;;;;;;;;4935232;29;20036;-86
2021/07/11 13:07:11;;;;;;;;;;;;;;;;;;4935027;29;20471;-85
2021/07/11 13:09:38;;;;;;;734.85;670.55;;;;;;;;;;4955276;28;19922;-84
2021/07/11 13:12:04;;;;;;;717.80;654.45;;;;;;;;;;4928002;29;20034;-85
2021/07/11 13:14:34;;;;;;;741.67;676.15;;;;;;;;;;4937799;29;20083;-86
2021/07/11 13:17:01;;;;;;;718.20;653.55;;;;;;;;;;4938355;29;20138;-81
2021/07/11 13:19:27;;;;;;;692.95;630.17;;;;;;;;;;4937793;29;20035;-79
2021/07/11 13:21:53;;;;;;;672.45;610.60;;;;;;;;;;4937199;28;20093;-79
2021/07/11 13:24:19;;;;;;;681.65;619.08;;;;;;;;;;4937660;29;20027;-84
2021/07/11 13:26:51;;;;;;;670.88;608.78;;;;;;;;;;4938445;29;20035;-85
2021/07/11 13:29:17;;;;;;;693.58;630.13;;;;;;;;;;4936377;29;20487;-82
2021/07/11 13:31:43;;;;;;;690.38;628.00;;;;;;;;;;4937554;29;20026;-83
2021/07/11 13:34:09;;;;;;;709.92;646.53;;;;;;;;;;4954468;29;20472;-87
2021/07/11 13:39:40;;;;;;;731.65;667.72;;;;;;;;;;4954256;29;20038;-81
2021/07/11 13:42:06;;;;;;;698.67;636.92;;;;;;;;;;4935251;29;20024;-87
2021/07/11 13:44:32;;;;;;;706.45;643.78;;;;;;;;;;4943302;28;20027;-90
2021/07/11 13:46:58;;;;;;;696.83;634.75;;;;;;;;;;4938253;29;20490;-80
2021/07/11 13:49:24;;;;;;;719.08;655.42;;;;;;;;;;4935418;29;20027;-82
2021/07/11 13:51:53;;;;;;;711.60;648.50;;;;;;;;;;4935786;29;20122;-81
2021/07/11 13:54:19;;;;;;;702.03;639.97;;;;;;;;;;4936952;29;20062;-85
2021/07/11 13:56:45;;;;;;;715.05;652.75;;;;;;;;;;4937316;29;20054;-84
2021/07/11 13:59:11;;;;;;;705.97;644.00;;;;;;;;;;4933435;29;20032;-80
2021/07/11 14:01:38;;;;;;;685.45;624.78;;;;;;;;;;4937130;29;20027;-81
2021/07/11 14:04:07;;;;;;;675.78;615.35;;;;;;;;;;4936888;29;20124;-84
2021/07/11 14:06:34;;;;;;;680.35;619.38;;;;;;;;;;4937869;29;20023;-89
2021/07/11 14:09:00;;;;;;;684.90;623.38;;;;;;;;;;4938854;29;20043;-86